createdAt,value
2022-11-24T00:02:17.977Z,83.00
2022-11-24T00:04:44.694Z,83.30
2022-11-24T00:07:11.347Z,83.20
2022-11-24T00:09:37.987Z,83.10
2022-11-24T00:12:04.602Z,83.20
2022-11-24T00:14:31.493Z,83.00
2022-11-24T00:16:58.449Z,82.70
2022-11-24T00:19:25.183Z,82.70
2022-11-24T00:21:51.803Z,82.90
2022-11-24T00:24:18.487Z,82.80
2022-11-24T00:26:45.129Z,82.80
2022-11-24T00:29:11.725Z,83.00
2022-11-24T00:31:39.616Z,83.10
2022-11-24T00:34:11.139Z,83.00
2022-11-24T00:36:38.155Z,83.00
2022-11-24T00:39:10.950Z,83.20
2022-11-24T00:41:37.597Z,83.30
2022-11-24T00:44:04.389Z,83.20
2022-11-24T00:46:31.104Z,83.10
2022-11-24T00:48:57.828Z,83.20
2022-11-24T00:51:27.032Z,83.10
2022-11-24T00:53:55.393Z,83.20
2022-11-24T00:56:22.253Z,83.10
2022-11-24T00:58:48.864Z,83.00
2022-11-24T01:01:16.629Z,83.10
2022-11-24T01:03:43.654Z,82.80
2022-11-24T01:06:11.975Z,83.00
2022-11-24T01:08:39.126Z,82.50
2022-11-24T01:11:13.664Z,82.80
2022-11-24T01:13:40.789Z,83.00
2022-11-24T01:16:13.272Z,83.20
2022-11-24T01:18:39.952Z,83.10
2022-11-24T01:21:10.114Z,83.00
2022-11-24T01:23:37.181Z,82.90
2022-11-24T01:26:08.098Z,82.80
2022-11-24T01:28:34.741Z,83.10
2022-11-24T01:31:02.566Z,83.10
2022-11-24T01:33:29.308Z,83.10
2022-11-24T01:35:57.111Z,82.70
2022-11-24T01:38:23.885Z,83.10
2022-11-24T01:40:50.667Z,83.70
2022-11-24T01:43:21.028Z,83.80
2022-11-24T01:45:47.777Z,84.40
2022-11-24T01:48:28.348Z,84.50
2022-11-24T01:51:08.350Z,85.10
2022-11-24T01:53:35.683Z,85.70
2022-11-24T01:56:02.845Z,85.80
2022-11-24T01:58:31.428Z,86.30
2022-11-24T02:00:58.029Z,86.50
2022-11-24T02:03:26.395Z,86.90
2022-11-24T02:06:00.178Z,87.30
2022-11-24T02:08:47.036Z,86.70
2022-11-24T02:11:13.700Z,86.60
2022-11-24T02:13:41.550Z,86.90
2022-11-24T02:16:10.125Z,87.00
2022-11-24T02:18:38.168Z,87.20
2022-11-24T02:21:05.159Z,87.20
2022-11-24T02:23:31.759Z,87.10
2022-11-24T02:26:16.983Z,86.80
2022-11-24T02:28:43.615Z,86.50
2022-11-24T02:31:10.642Z,85.90
2022-11-24T02:33:37.554Z,85.90
2022-11-24T02:36:04.206Z,85.90
2022-11-24T02:38:35.082Z,86.30
2022-11-24T02:41:06.836Z,86.50
2022-11-24T02:43:36.768Z,87.30
2022-11-24T02:46:03.514Z,87.50
2022-11-24T02:48:30.183Z,87.20
2022-11-24T02:50:56.794Z,87.00
2022-11-24T02:53:23.417Z,87.00
2022-11-24T02:55:50.015Z,86.60
2022-11-24T02:58:16.660Z,86.50
2022-11-24T03:00:43.285Z,85.60
2022-11-24T03:03:10.383Z,85.70
2022-11-24T03:05:37.105Z,85.60
2022-11-24T03:08:04.091Z,85.00
2022-11-24T03:10:30.704Z,85.30
2022-11-24T03:12:57.472Z,85.10
2022-11-24T03:15:24.351Z,85.30
2022-11-24T03:17:50.946Z,85.30
2022-11-24T03:20:17.623Z,84.90
2022-11-24T03:22:44.212Z,84.20
2022-11-24T03:25:11.256Z,83.90
2022-11-24T03:27:37.900Z,83.80
2022-11-24T03:30:04.817Z,83.70
2022-11-24T03:32:31.420Z,83.40
2022-11-24T03:34:58.027Z,83.70
2022-11-24T03:37:24.696Z,83.60
2022-11-24T03:39:51.318Z,83.70
2022-11-24T03:42:17.942Z,83.80
2022-11-24T03:44:44.558Z,83.60
2022-11-24T03:47:11.606Z,83.50
2022-11-24T03:49:38.873Z,83.40
2022-11-24T03:52:08.248Z,83.40
2022-11-24T03:54:35.470Z,83.20
2022-11-24T03:57:02.254Z,83.20
2022-11-24T03:59:28.891Z,83.30
2022-11-24T04:01:55.578Z,83.40
2022-11-24T04:04:22.226Z,83.50
2022-11-24T04:06:48.845Z,83.20
2022-11-24T04:09:15.632Z,83.30
2022-11-24T04:12:00.922Z,83.60
2022-11-24T04:14:27.720Z,83.70
2022-11-24T04:16:54.311Z,83.90
2022-11-24T04:19:20.975Z,83.60
2022-11-24T04:21:47.677Z,83.60
2022-11-24T04:24:14.742Z,83.40
2022-11-24T04:26:41.457Z,83.70
2022-11-24T04:29:09.185Z,83.80
2022-11-24T04:31:35.881Z,84.00
2022-11-24T04:34:02.610Z,83.80
2022-11-24T04:36:29.632Z,84.00
2022-11-24T04:39:22.783Z,84.10
2022-11-24T04:41:43.008Z,83.60
2022-11-24T04:44:09.772Z,83.70
2022-11-24T04:46:36.587Z,83.70
2022-11-24T04:49:03.359Z,83.70
2022-11-24T04:51:30.225Z,83.90
2022-11-24T04:53:56.841Z,84.20
2022-11-24T04:56:23.499Z,84.00
2022-11-24T04:58:50.135Z,84.10
2022-11-24T05:01:16.858Z,83.90
2022-11-24T05:03:43.677Z,84.00
2022-11-24T05:06:10.565Z,83.90
2022-11-24T05:08:38.544Z,83.90
2022-11-24T05:11:06.394Z,84.00
2022-11-24T05:13:33.240Z,83.60
2022-11-24T05:16:01.227Z,83.30
2022-11-24T05:18:28.862Z,83.30
2022-11-24T05:20:55.718Z,83.10
2022-11-24T05:23:22.517Z,83.10
2022-11-24T05:25:49.183Z,83.00
2022-11-24T05:28:16.179Z,82.60
2022-11-24T05:30:43.125Z,82.60
2022-11-24T05:33:19.034Z,82.50
2022-11-24T05:35:46.269Z,82.40
2022-11-24T05:38:12.928Z,82.30
2022-11-24T05:40:39.554Z,82.40
2022-11-24T05:43:09.915Z,82.10
2022-11-24T05:45:36.516Z,82.20
2022-11-24T05:48:07.469Z,82.20
2022-11-24T05:50:34.953Z,82.30
2022-11-24T05:53:02.019Z,82.40
2022-11-24T05:55:28.608Z,82.50
2022-11-24T05:57:59.575Z,82.30
2022-11-24T06:00:26.517Z,82.40
2022-11-24T06:02:53.181Z,82.10
2022-11-24T06:05:19.844Z,82.00
2022-11-24T06:07:46.561Z,81.90
2022-11-24T06:10:13.804Z,82.00
2022-11-24T06:12:40.383Z,81.80
2022-11-24T06:15:07.265Z,81.60
2022-11-24T06:17:34.134Z,81.70
2022-11-24T06:20:00.831Z,81.60
2022-11-24T06:22:27.466Z,81.50
2022-11-24T06:24:54.079Z,81.40
2022-11-24T06:27:20.706Z,81.30
2022-11-24T06:29:47.506Z,81.30
2022-11-24T06:32:14.405Z,81.40
2022-11-24T06:34:42.078Z,81.30
2022-11-24T06:37:09.096Z,81.30
2022-11-24T06:39:35.704Z,81.30
2022-11-24T06:42:02.329Z,81.40
2022-11-24T06:44:29.088Z,80.70
2022-11-24T06:46:55.938Z,81.40
2022-11-24T06:49:22.770Z,81.10
2022-11-24T06:51:50.312Z,80.90
2022-11-24T06:54:18.195Z,81.00
2022-11-24T06:56:44.798Z,81.40
2022-11-24T06:59:16.646Z,81.30
2022-11-24T07:01:43.234Z,81.30
2022-11-24T07:04:10.267Z,81.20
2022-11-24T07:06:36.917Z,81.40
2022-11-24T07:09:03.632Z,81.40
2022-11-24T07:11:30.249Z,81.40
2022-11-24T07:14:00.090Z,81.50
2022-11-24T07:16:27.806Z,81.60
2022-11-24T07:18:54.523Z,81.50
2022-11-24T07:21:22.469Z,81.40
2022-11-24T07:23:49.844Z,81.00
2022-11-24T07:26:16.707Z,80.70
2022-11-24T07:28:43.688Z,80.80
2022-11-24T07:31:11.698Z,80.40
2022-11-24T07:33:38.524Z,79.90
2022-11-24T07:36:06.127Z,79.60
2022-11-24T07:38:33.108Z,79.40
2022-11-24T07:41:04.072Z,79.20
2022-11-24T07:43:30.984Z,79.20
2022-11-24T07:45:58.755Z,78.80
2022-11-24T07:48:25.691Z,78.60
2022-11-24T07:50:55.753Z,78.40
2022-11-24T07:53:23.035Z,78.50
2022-11-24T07:55:56.427Z,78.30
2022-11-24T07:58:23.245Z,78.30
2022-11-24T08:00:49.963Z,77.70
2022-11-24T08:03:16.639Z,77.80
2022-11-24T08:06:07.870Z,77.00
2022-11-24T08:08:33.228Z,76.90
2022-11-24T08:11:06.990Z,76.00
2022-11-24T08:13:34.313Z,76.20
2022-11-24T08:16:03.998Z,76.40
2022-11-24T08:18:30.683Z,75.50
2022-11-24T08:20:57.751Z,75.70
2022-11-24T08:23:24.375Z,76.10
2022-11-24T08:25:56.686Z,75.80
2022-11-24T08:28:24.031Z,75.40
2022-11-24T08:30:51.180Z,75.30
2022-11-24T08:33:17.805Z,75.70
2022-11-24T08:35:44.437Z,76.20
2022-11-24T08:38:11.045Z,76.20
2022-11-24T08:40:37.655Z,75.70
2022-11-24T08:43:04.287Z,75.60
2022-11-24T08:45:30.987Z,75.90
2022-11-24T08:47:58.183Z,75.40
2022-11-24T08:50:25.327Z,76.00
2022-11-24T08:52:52.846Z,76.00
2022-11-24T08:55:19.574Z,75.90
2022-11-24T08:57:46.193Z,75.80
2022-11-24T09:00:13.864Z,76.50
2022-11-24T09:02:42.423Z,76.00
2022-11-24T09:05:28.764Z,76.60
2022-11-24T09:07:55.657Z,76.20
2022-11-24T09:10:22.405Z,78.20
2022-11-24T09:12:49.109Z,77.60
2022-11-24T09:15:16.984Z,76.70
2022-11-24T09:17:43.779Z,78.20
2022-11-24T09:20:10.520Z,78.60
2022-11-24T09:22:38.082Z,79.70
2022-11-24T09:25:07.753Z,80.00
2022-11-24T09:27:34.585Z,79.80
2022-11-24T09:30:01.284Z,80.40
2022-11-24T09:32:29.126Z,80.40
2022-11-24T09:34:55.749Z,80.20
2022-11-24T09:37:22.441Z,80.80
2022-11-24T09:39:49.139Z,82.00
2022-11-24T09:42:17.717Z,82.10
2022-11-24T09:44:58.267Z,82.90
2022-11-24T09:47:43.478Z,82.10
2022-11-24T09:50:31.947Z,81.60
2022-11-24T09:53:22.992Z,82.30
2022-11-24T09:55:50.356Z,82.00
2022-11-24T09:58:28.882Z,81.90
2022-11-24T10:00:56.042Z,81.30
2022-11-24T10:03:29.373Z,81.10
2022-11-24T10:05:56.080Z,80.60
2022-11-24T10:08:30.432Z,81.30
2022-11-24T10:10:59.468Z,81.20
2022-11-24T10:13:29.143Z,81.40
2022-11-24T10:16:02.397Z,81.90
2022-11-24T10:18:35.368Z,80.90
2022-11-24T10:21:07.380Z,81.30
2022-11-24T10:23:45.683Z,81.20
2022-11-24T10:26:38.380Z,81.80
2022-11-24T10:29:24.956Z,81.40
2022-11-24T10:31:57.722Z,81.90
2022-11-24T10:34:29.818Z,81.60
2022-11-24T10:37:04.260Z,81.10
2022-11-24T10:39:37.219Z,82.20
2022-11-24T10:42:06.715Z,81.60
2022-11-24T10:44:33.466Z,81.90
2022-11-24T10:47:00.167Z,83.00
2022-11-24T10:49:33.588Z,82.60
2022-11-24T10:52:08.572Z,82.00
2022-11-24T10:54:52.588Z,81.70
2022-11-24T10:57:28.502Z,81.50
2022-11-24T10:59:55.686Z,82.00
2022-11-24T11:02:30.712Z,81.90
2022-11-24T11:04:57.659Z,81.40
2022-11-24T11:07:26.229Z,81.50
2022-11-24T11:10:12.852Z,82.00
2022-11-24T11:12:44.397Z,82.80
2022-11-24T11:15:30.594Z,82.50
2022-11-24T11:17:59.004Z,82.40
2022-11-24T11:20:27.930Z,82.90
2022-11-24T11:22:56.187Z,82.30
2022-11-24T11:25:33.279Z,82.20
2022-11-24T11:28:16.476Z,82.60
2022-11-24T11:31:16.689Z,82.40
2022-11-24T11:34:14.390Z,81.60
2022-11-24T11:36:45.233Z,81.40
2022-11-24T11:39:23.834Z,79.60
2022-11-24T11:41:53.644Z,79.60
2022-11-24T11:44:26.237Z,79.00
2022-11-24T11:46:53.557Z,79.60
2022-11-24T11:49:20.268Z,79.00
2022-11-24T11:51:50.006Z,79.30
2022-11-24T11:54:43.851Z,78.20
2022-11-24T11:57:11.786Z,80.70
2022-11-24T11:59:59.000Z,79.80
2022-11-24T12:02:53.878Z,80.40
2022-11-24T12:05:24.005Z,81.90
2022-11-24T12:08:11.574Z,81.90
2022-11-24T12:10:51.266Z,82.10
2022-11-24T12:13:36.800Z,81.90
2022-11-24T12:16:30.855Z,83.00
2022-11-24T12:19:06.440Z,82.00
2022-11-24T12:21:43.929Z,81.60
2022-11-24T12:24:29.387Z,80.90
2022-11-24T12:27:01.288Z,80.50
2022-11-24T12:29:44.984Z,80.40
2022-11-24T12:32:21.518Z,79.70
2022-11-24T12:34:51.299Z,80.40
2022-11-24T12:37:27.403Z,81.30
2022-11-24T12:40:03.575Z,81.30
2022-11-24T12:42:35.837Z,81.10
2022-11-24T12:45:02.487Z,81.00
2022-11-24T12:47:36.309Z,80.10
2022-11-24T12:50:06.018Z,79.90
2022-11-24T12:52:35.199Z,79.60
2022-11-24T12:55:02.345Z,80.00
2022-11-24T12:57:41.326Z,78.50
2022-11-24T13:00:14.878Z,78.80
2022-11-24T13:02:50.746Z,80.10
2022-11-24T13:05:23.728Z,78.90
2022-11-24T13:07:56.056Z,78.40
2022-11-24T13:10:53.560Z,76.40
2022-11-24T13:13:13.171Z,77.60
2022-11-24T13:16:34.534Z,77.90
2022-11-24T13:19:01.172Z,74.40
2022-11-24T13:21:28.281Z,69.80
2022-11-24T13:24:05.096Z,68.10
2022-11-24T13:26:43.855Z,68.80
2022-11-24T13:29:29.377Z,69.70
2022-11-24T13:32:17.544Z,70.40
2022-11-24T13:34:45.581Z,72.60
2022-11-24T13:37:35.377Z,73.80
2022-11-24T13:40:22.804Z,69.20
2022-11-24T13:43:01.186Z,69.80
2022-11-24T13:45:49.647Z,73.10
2022-11-24T13:48:19.653Z,65.80
2022-11-24T13:50:49.641Z,64.10
2022-11-24T13:53:36.507Z,61.30
2022-11-24T13:56:05.779Z,58.20
2022-11-24T13:58:41.386Z,63.00
2022-11-24T14:01:12.937Z,67.50
2022-11-24T14:04:28.044Z,65.80
2022-11-24T14:06:40.220Z,65.20
2022-11-24T14:09:33.120Z,65.40
2022-11-24T14:12:03.691Z,66.20
2022-11-24T14:14:30.286Z,65.20
2022-11-24T14:17:27.701Z,62.90
2022-11-24T14:19:55.526Z,64.30
2022-11-24T14:22:27.679Z,66.20
2022-11-24T14:24:56.113Z,64.80
2022-11-24T14:27:27.403Z,64.40
2022-11-24T14:29:55.252Z,63.20
2022-11-24T14:32:22.085Z,63.50
2022-11-24T14:34:48.891Z,65.30
2022-11-24T14:37:15.545Z,68.40
2022-11-24T14:39:42.890Z,70.10
2022-11-24T14:42:22.917Z,71.00
2022-11-24T14:44:49.894Z,73.20
2022-11-24T14:47:19.585Z,74.40
2022-11-24T14:49:46.232Z,75.30
2022-11-24T14:52:14.041Z,75.60
2022-11-24T14:54:48.236Z,76.30
2022-11-24T14:57:23.561Z,76.50
2022-11-24T15:00:05.543Z,77.20
2022-11-24T15:03:01.638Z,77.60
2022-11-24T15:05:47.327Z,77.90
2022-11-24T15:08:14.362Z,78.60
2022-11-24T15:10:41.145Z,78.70
2022-11-24T15:13:16.132Z,78.80
2022-11-24T15:15:46.620Z,78.80
2022-11-24T15:18:21.164Z,79.00
2022-11-24T15:20:47.787Z,79.20
2022-11-24T15:23:14.366Z,79.20
2022-11-24T15:25:41.015Z,79.10
2022-11-24T15:28:08.327Z,79.20
2022-11-24T15:30:35.778Z,79.30
2022-11-24T15:33:02.842Z,79.30
2022-11-24T15:35:30.745Z,80.00
2022-11-24T15:37:57.373Z,80.40
2022-11-24T15:40:23.993Z,80.40
2022-11-24T15:42:52.296Z,80.30
2022-11-24T15:45:19.675Z,80.20
2022-11-24T15:47:46.343Z,80.70
2022-11-24T15:50:13.535Z,80.90
2022-11-24T15:52:40.686Z,80.50
2022-11-24T15:55:09.712Z,80.40
2022-11-24T15:57:36.339Z,80.50
2022-11-24T16:00:03.415Z,80.10
2022-11-24T16:02:38.789Z,80.10
2022-11-24T16:05:05.700Z,80.20
2022-11-24T16:07:32.380Z,80.10
2022-11-24T16:09:59.027Z,80.10
2022-11-24T16:12:25.625Z,80.10
2022-11-24T16:14:52.252Z,80.30
2022-11-24T16:17:18.839Z,80.00
2022-11-24T16:19:45.445Z,79.90
2022-11-24T16:22:12.053Z,80.00
2022-11-24T16:24:39.124Z,80.00
2022-11-24T16:27:05.768Z,80.50
2022-11-24T16:29:38.049Z,80.30
2022-11-24T16:32:05.276Z,80.50
2022-11-24T16:34:32.029Z,80.50
2022-11-24T16:36:58.762Z,81.00
2022-11-24T16:39:25.362Z,80.90
2022-11-24T16:41:51.961Z,80.20
2022-11-24T16:44:18.598Z,80.40
2022-11-24T16:46:45.222Z,80.00
2022-11-24T16:49:11.840Z,79.70
2022-11-24T16:51:38.486Z,79.70
2022-11-24T16:54:05.147Z,80.00
2022-11-24T16:56:31.999Z,80.20
2022-11-24T16:58:58.718Z,79.90
2022-11-24T17:01:26.080Z,79.70
2022-11-24T17:03:52.919Z,79.70
2022-11-24T17:06:19.591Z,79.70
2022-11-24T17:08:46.536Z,79.50
2022-11-24T17:11:14.816Z,79.90
2022-11-24T17:13:41.711Z,79.60
2022-11-24T17:16:09.638Z,79.90
2022-11-24T17:18:36.469Z,79.90
2022-11-24T17:21:09.116Z,79.70
2022-11-24T17:23:36.244Z,79.80
2022-11-24T17:26:03.774Z,79.00
2022-11-24T17:28:30.440Z,79.50
2022-11-24T17:30:57.082Z,79.70
2022-11-24T17:33:23.716Z,79.20
2022-11-24T17:35:50.316Z,79.70
2022-11-24T17:38:16.920Z,79.90
2022-11-24T17:40:47.761Z,80.40
2022-11-24T17:43:14.381Z,79.90
2022-11-24T17:45:41.155Z,80.60
2022-11-24T17:48:07.788Z,79.60
2022-11-24T17:50:34.695Z,80.10
2022-11-24T17:53:01.405Z,79.50
2022-11-24T17:55:28.020Z,80.20
2022-11-24T17:57:55.578Z,79.30
2022-11-24T18:00:22.306Z,80.00
2022-11-24T18:02:48.964Z,80.20
2022-11-24T18:05:15.760Z,80.30
2022-11-24T18:07:42.410Z,79.00
2022-11-24T18:10:09.257Z,79.40
2022-11-24T18:12:35.868Z,79.20
2022-11-24T18:15:02.577Z,79.60
2022-11-24T18:17:29.358Z,79.80
2022-11-24T18:19:56.062Z,80.00
2022-11-24T18:22:42.852Z,79.80
2022-11-24T18:25:09.332Z,79.80
2022-11-24T18:27:35.939Z,80.00
2022-11-24T18:30:02.571Z,80.10
2022-11-24T18:32:29.191Z,79.90
2022-11-24T18:34:55.800Z,79.50
2022-11-24T18:37:22.399Z,79.00
2022-11-24T18:39:49.000Z,79.50
2022-11-24T18:42:16.733Z,79.40
2022-11-24T18:44:45.452Z,79.60
2022-11-24T18:47:14.384Z,79.90
2022-11-24T18:49:41.012Z,79.40
2022-11-24T18:52:07.585Z,78.90
2022-11-24T18:54:34.420Z,78.90
2022-11-24T18:57:03.560Z,79.10
2022-11-24T18:59:30.557Z,78.40
2022-11-24T19:01:58.032Z,78.70
2022-11-24T19:04:26.154Z,78.80
2022-11-24T19:06:52.772Z,79.60
2022-11-24T19:09:20.739Z,79.50
2022-11-24T19:11:47.548Z,79.40
2022-11-24T19:14:15.658Z,79.30
2022-11-24T19:16:43.096Z,78.90
2022-11-24T19:19:11.464Z,78.90
2022-11-24T19:21:39.004Z,79.70
2022-11-24T19:24:06.822Z,79.50
2022-11-24T19:26:34.986Z,79.50
2022-11-24T19:29:02.063Z,79.60
2022-11-24T19:31:28.793Z,80.30
2022-11-24T19:33:57.856Z,80.70
2022-11-24T19:36:25.944Z,80.60
2022-11-24T19:38:54.076Z,80.90
2022-11-24T19:41:22.440Z,80.70
2022-11-24T19:43:49.482Z,80.40
2022-11-24T19:46:18.210Z,80.00
2022-11-24T19:48:46.171Z,80.10
2022-11-24T19:51:17.366Z,78.70
2022-11-24T19:53:44.135Z,79.30
2022-11-24T19:56:14.802Z,79.70
2022-11-24T19:58:41.437Z,79.80
2022-11-24T20:01:09.053Z,80.40
2022-11-24T20:03:36.464Z,80.30
2022-11-24T20:06:03.784Z,80.00
2022-11-24T20:08:35.080Z,79.60
2022-11-24T20:11:02.819Z,80.00
2022-11-24T20:13:29.639Z,80.40
2022-11-24T20:15:56.284Z,79.20
2022-11-24T20:18:24.212Z,80.00
2022-11-24T20:20:50.806Z,79.50
2022-11-24T20:23:17.416Z,79.70
2022-11-24T20:25:44.039Z,79.90
2022-11-24T20:28:11.580Z,80.20
2022-11-24T20:30:38.310Z,80.20
2022-11-24T20:33:04.899Z,80.70
2022-11-24T20:35:31.566Z,80.90
2022-11-24T20:37:58.159Z,79.90
2022-11-24T20:40:24.798Z,80.10
2022-11-24T20:42:51.370Z,79.00
2022-11-24T20:45:17.987Z,78.90
2022-11-24T20:47:44.579Z,79.40
2022-11-24T20:50:11.186Z,78.40
2022-11-24T20:52:37.788Z,79.50
2022-11-24T20:55:05.436Z,79.00
2022-11-24T20:57:32.071Z,79.20
2022-11-24T20:59:58.674Z,79.20
2022-11-24T21:02:26.364Z,79.40
2022-11-24T21:04:52.986Z,79.00
2022-11-24T21:07:19.674Z,79.90
2022-11-24T21:09:46.310Z,80.30
2022-11-24T21:12:12.928Z,80.40
2022-11-24T21:14:39.976Z,79.80
2022-11-24T21:17:06.775Z,79.80
2022-11-24T21:19:33.378Z,79.10
2022-11-24T21:21:59.954Z,79.40
2022-11-24T21:24:26.603Z,79.20
2022-11-24T21:26:53.257Z,79.00
2022-11-24T21:29:23.212Z,79.60
2022-11-24T21:31:50.002Z,79.10
2022-11-24T21:34:18.469Z,78.60
2022-11-24T21:36:45.370Z,78.70
2022-11-24T21:39:13.588Z,79.50
2022-11-24T21:41:40.568Z,80.10
2022-11-24T21:44:07.285Z,79.10
2022-11-24T21:46:39.147Z,79.20
2022-11-24T21:49:10.672Z,79.20
2022-11-24T21:51:37.265Z,78.80
2022-11-24T21:54:03.962Z,78.60
2022-11-24T21:56:30.558Z,78.10
2022-11-24T21:58:58.038Z,78.90
2022-11-24T22:01:26.116Z,77.80
2022-11-24T22:03:52.805Z,78.00
2022-11-24T22:06:19.497Z,78.40
2022-11-24T22:08:46.889Z,78.10
2022-11-24T22:11:14.693Z,78.20
2022-11-24T22:13:42.012Z,79.30
2022-11-24T22:16:10.233Z,78.60
2022-11-24T22:18:38.326Z,78.40
2022-11-24T22:21:05.846Z,77.80
2022-11-24T22:23:33.366Z,78.40
2022-11-24T22:26:06.692Z,78.00
2022-11-24T22:28:33.764Z,77.90
2022-11-24T22:31:04.599Z,78.30
2022-11-24T22:33:31.268Z,78.30
2022-11-24T22:35:58.934Z,78.00
2022-11-24T22:38:26.116Z,77.40
2022-11-24T22:40:52.972Z,77.80
2022-11-24T22:43:22.992Z,77.90
2022-11-24T22:45:50.018Z,78.00
2022-11-24T22:48:16.695Z,77.30
2022-11-24T22:50:43.295Z,77.00
2022-11-24T22:53:09.959Z,77.50
2022-11-24T22:55:36.642Z,77.80
2022-11-24T22:58:03.296Z,77.40
2022-11-24T23:00:29.985Z,77.60
2022-11-24T23:02:56.708Z,78.50
2022-11-24T23:05:23.436Z,77.60
2022-11-24T23:07:50.177Z,77.50
2022-11-24T23:10:16.825Z,78.50
2022-11-24T23:12:44.090Z,77.60
2022-11-24T23:15:10.825Z,77.10
2022-11-24T23:17:37.415Z,77.50
2022-11-24T23:20:04.295Z,76.60
2022-11-24T23:22:30.878Z,77.20
2022-11-24T23:24:57.470Z,75.70
2022-11-24T23:27:24.060Z,77.40
2022-11-24T23:29:50.728Z,77.10
2022-11-24T23:32:17.324Z,76.70
2022-11-24T23:34:43.928Z,76.50
2022-11-24T23:37:10.535Z,77.40
2022-11-24T23:39:37.129Z,77.50
2022-11-24T23:42:03.800Z,77.30
2022-11-24T23:44:30.391Z,76.80
2022-11-24T23:46:57.008Z,76.30
2022-11-24T23:49:23.615Z,76.80
2022-11-24T23:51:50.204Z,77.20
2022-11-24T23:54:16.898Z,77.40
2022-11-24T23:56:43.525Z,76.40
2022-11-24T23:59:11.047Z,76.50
